createdAt,value
2022-11-04T00:01:40.169Z,0.50
2022-11-04T00:04:08.510Z,0.50
2022-11-04T00:06:38.223Z,0.70
2022-11-04T00:09:06.619Z,0.40
2022-11-04T00:11:52.356Z,0.40
2022-11-04T00:14:20.593Z,0.50
2022-11-04T00:17:06.479Z,0.33
2022-11-04T00:19:55.029Z,0.30
2022-11-04T00:22:42.188Z,0.27
2022-11-04T00:25:28.407Z,0.30
2022-11-04T00:28:21.099Z,0.50
2022-11-04T00:30:49.346Z,0.33
2022-11-04T00:33:25.869Z,0.53
2022-11-04T00:35:54.453Z,0.63
2022-11-04T00:38:24.118Z,0.47
2022-11-04T00:40:52.417Z,0.40
2022-11-04T00:43:20.712Z,0.50
2022-11-04T00:45:49.018Z,0.40
2022-11-04T00:48:17.261Z,0.87
2022-11-04T00:50:45.587Z,0.30
2022-11-04T00:53:13.996Z,0.50
2022-11-04T00:55:43.674Z,0.77
2022-11-04T00:58:11.938Z,0.50
2022-11-04T01:00:40.637Z,0.50
2022-11-04T01:03:09.324Z,0.50
2022-11-04T01:05:39.122Z,0.60
2022-11-04T01:08:07.671Z,0.40
2022-11-04T01:10:44.489Z,0.47
2022-11-04T01:13:14.141Z,0.40
2022-11-04T01:15:42.400Z,0.60
2022-11-04T01:18:11.084Z,0.50
2022-11-04T01:20:39.533Z,0.90
2022-11-04T01:23:07.785Z,0.47
2022-11-04T01:25:36.035Z,0.30
2022-11-04T01:28:04.353Z,0.40
2022-11-04T01:30:33.960Z,0.57
2022-11-04T01:33:02.229Z,0.50
2022-11-04T01:35:30.560Z,0.20
2022-11-04T01:37:59.584Z,0.53
2022-11-04T01:40:27.881Z,0.83
2022-11-04T01:42:56.214Z,0.73
2022-11-04T01:45:24.472Z,1.00
2022-11-04T01:47:54.969Z,0.60
2022-11-04T01:50:24.984Z,0.70
2022-11-04T01:52:54.651Z,0.60
2022-11-04T01:55:23.381Z,0.60
2022-11-04T01:57:51.934Z,0.57
2022-11-04T02:00:20.255Z,1.03
2022-11-04T02:02:51.465Z,0.67
2022-11-04T02:05:21.117Z,0.97
2022-11-04T02:07:49.671Z,0.60
2022-11-04T02:10:18.027Z,0.90
2022-11-04T02:12:51.126Z,0.60
2022-11-04T02:15:20.623Z,0.63
2022-11-04T02:17:54.906Z,0.70
2022-11-04T02:20:35.697Z,0.90
2022-11-04T02:23:21.640Z,0.53
2022-11-04T02:26:06.169Z,0.37
2022-11-04T02:28:43.762Z,0.57
2022-11-04T02:31:14.028Z,0.60
2022-11-04T02:33:42.606Z,0.87
2022-11-04T02:36:11.670Z,0.40
2022-11-04T02:38:40.608Z,1.03
2022-11-04T02:41:12.496Z,0.80
2022-11-04T02:43:43.592Z,0.93
2022-11-04T02:46:15.247Z,0.63
2022-11-04T02:48:45.332Z,0.83
2022-11-04T02:51:14.871Z,0.60
2022-11-04T02:53:43.716Z,0.70
2022-11-04T02:56:11.982Z,0.30
2022-11-04T02:58:42.397Z,0.70
2022-11-04T03:01:10.965Z,0.67
2022-11-04T03:03:41.651Z,0.80
2022-11-04T03:06:10.074Z,0.40
2022-11-04T03:08:40.207Z,0.50
2022-11-04T03:11:10.071Z,0.63
2022-11-04T03:13:38.610Z,0.37
2022-11-04T03:16:09.224Z,0.53
2022-11-04T03:18:38.777Z,0.70
2022-11-04T03:21:09.222Z,0.60
2022-11-04T03:23:37.516Z,0.50
2022-11-04T03:26:09.009Z,0.57
2022-11-04T03:28:39.328Z,0.90
2022-11-04T03:31:07.588Z,0.60
2022-11-04T03:33:36.738Z,0.57
2022-11-04T03:36:05.090Z,0.50
2022-11-04T03:38:34.721Z,0.80
2022-11-04T03:41:03.002Z,0.40
2022-11-04T03:43:31.308Z,0.80
2022-11-04T03:45:59.542Z,0.70
2022-11-04T03:48:28.169Z,0.50
2022-11-04T03:50:56.480Z,0.90
2022-11-04T03:56:03.794Z,0.57
2022-11-04T03:58:34.526Z,0.40
2022-11-04T04:01:05.146Z,0.73
2022-11-04T04:03:34.820Z,0.60
2022-11-04T04:06:05.646Z,0.60
2022-11-04T04:08:35.099Z,0.70
2022-11-04T04:11:06.662Z,0.80
2022-11-04T04:13:36.949Z,0.80
2022-11-04T04:16:06.535Z,0.60
2022-11-04T04:18:36.260Z,0.80
2022-11-04T04:21:05.148Z,0.63
2022-11-04T04:23:50.916Z,0.40
2022-11-04T04:26:38.217Z,0.87
2022-11-04T04:29:06.715Z,0.57
2022-11-04T04:31:57.579Z,0.40
2022-11-04T04:34:26.327Z,0.53
2022-11-04T04:36:56.119Z,0.50
2022-11-04T04:39:42.463Z,1.07
2022-11-04T04:42:29.838Z,0.50
2022-11-04T04:45:01.140Z,0.60
2022-11-04T04:47:30.914Z,0.50
2022-11-04T04:49:59.462Z,0.60
2022-11-04T04:52:28.329Z,0.60
2022-11-04T04:54:56.579Z,0.80
2022-11-04T04:57:26.177Z,0.80
2022-11-04T04:59:54.430Z,1.03
2022-11-04T05:02:22.765Z,0.67
2022-11-04T05:04:51.148Z,0.60
2022-11-04T05:07:19.402Z,0.80
2022-11-04T05:09:47.700Z,0.60
2022-11-04T05:12:15.987Z,0.50
2022-11-04T05:14:45.639Z,0.63
2022-11-04T05:17:13.994Z,0.87
2022-11-04T05:19:42.595Z,0.40
2022-11-04T05:22:10.868Z,0.60
2022-11-04T05:24:39.129Z,0.60
2022-11-04T05:27:07.406Z,0.73
2022-11-04T05:29:35.661Z,0.77
2022-11-04T05:32:05.389Z,0.60
2022-11-04T05:34:33.709Z,1.00
2022-11-04T05:37:02.330Z,0.50
2022-11-04T05:39:30.566Z,0.57
2022-11-04T05:41:58.822Z,0.60
2022-11-04T05:44:27.094Z,0.73
2022-11-04T05:46:55.359Z,0.80
2022-11-04T05:49:24.977Z,0.83
2022-11-04T05:51:53.435Z,0.50
2022-11-04T05:54:21.677Z,0.40
2022-11-04T05:56:50.090Z,0.93
2022-11-04T05:59:18.329Z,0.67
2022-11-04T06:01:46.676Z,0.60
2022-11-04T06:04:15.792Z,0.80
2022-11-04T06:06:45.404Z,0.70
2022-11-04T06:09:13.646Z,0.60
2022-11-04T06:11:42.065Z,0.70
2022-11-04T06:14:12.582Z,0.40
2022-11-04T06:16:44.317Z,0.70
2022-11-04T06:19:15.088Z,0.63
2022-11-04T06:21:45.902Z,0.73
2022-11-04T06:24:14.259Z,0.80
2022-11-04T06:26:42.482Z,0.40
2022-11-04T06:29:10.910Z,0.60
2022-11-04T06:31:39.210Z,0.67
2022-11-04T06:34:07.484Z,0.70
2022-11-04T06:36:36.330Z,0.60
2022-11-04T06:39:06.903Z,0.57
2022-11-04T06:41:35.152Z,0.53
2022-11-04T06:44:03.511Z,1.00
2022-11-04T06:46:33.474Z,1.23
2022-11-04T06:49:01.777Z,0.50
2022-11-04T06:51:30.101Z,0.87
2022-11-04T06:53:58.375Z,0.50
2022-11-04T06:56:28.224Z,0.80
2022-11-04T06:58:56.510Z,0.93
2022-11-04T07:01:25.837Z,0.93
2022-11-04T07:03:54.815Z,0.70
2022-11-04T07:06:23.060Z,0.80
2022-11-04T07:08:51.597Z,0.50
2022-11-04T07:11:21.172Z,0.50
2022-11-04T07:13:50.828Z,0.50
2022-11-04T07:16:19.101Z,0.70
2022-11-04T07:18:48.147Z,0.70
2022-11-04T07:21:16.465Z,0.50
2022-11-04T07:23:44.736Z,0.60
2022-11-04T07:26:13.226Z,0.40
2022-11-04T07:28:41.507Z,1.47
2022-11-04T07:31:12.132Z,0.60
2022-11-04T07:33:40.406Z,0.60
2022-11-04T07:36:09.259Z,0.53
2022-11-04T07:38:37.545Z,0.70
2022-11-04T07:41:05.844Z,0.43
2022-11-04T07:43:34.102Z,0.67
2022-11-04T07:46:02.601Z,0.80
2022-11-04T07:48:32.557Z,0.70
2022-11-04T07:51:00.908Z,0.67
2022-11-04T07:53:29.364Z,0.30
2022-11-04T07:55:57.667Z,0.60
2022-11-04T07:58:26.236Z,0.73
2022-11-04T08:00:59.502Z,0.60
2022-11-04T08:03:27.892Z,0.80
2022-11-04T08:06:00.992Z,0.40
2022-11-04T08:08:29.638Z,0.60
2022-11-04T08:10:58.647Z,0.70
2022-11-04T08:13:28.994Z,0.60
2022-11-04T08:15:57.261Z,0.53
2022-11-04T08:18:25.542Z,0.57
2022-11-04T08:20:54.274Z,0.50
2022-11-04T08:23:23.943Z,0.50
2022-11-04T08:25:52.191Z,0.53
2022-11-04T08:28:20.596Z,0.80
2022-11-04T08:30:55.420Z,0.70
2022-11-04T08:33:23.767Z,0.70
2022-11-04T08:35:52.033Z,0.70
2022-11-04T08:38:20.287Z,0.50
2022-11-04T08:40:49.935Z,0.63
2022-11-04T08:43:18.198Z,0.60
2022-11-04T08:45:46.971Z,0.40
2022-11-04T08:48:16.625Z,0.57
2022-11-04T08:50:47.660Z,0.70
2022-11-04T08:53:15.970Z,0.40
2022-11-04T08:55:44.348Z,0.50
2022-11-04T08:58:13.992Z,0.87
2022-11-04T09:00:42.254Z,1.03
2022-11-04T09:03:10.926Z,0.73
2022-11-04T09:05:44.656Z,0.63
2022-11-04T09:08:13.109Z,1.07
2022-11-04T09:10:43.647Z,1.00
2022-11-04T09:13:12.307Z,1.00
2022-11-04T09:15:42.366Z,0.97
2022-11-04T09:18:10.658Z,1.10
2022-11-04T09:20:39.509Z,1.00
2022-11-04T09:23:08.246Z,0.90
2022-11-04T09:25:36.744Z,0.90
2022-11-04T09:28:05.513Z,0.80
2022-11-04T09:30:33.783Z,1.20
2022-11-04T09:33:04.057Z,1.57
2022-11-04T09:35:32.418Z,1.20
2022-11-04T09:38:01.714Z,1.43
2022-11-04T09:40:30.119Z,0.90
2022-11-04T09:43:01.703Z,0.83
2022-11-04T09:45:30.206Z,0.63
2022-11-04T09:47:59.941Z,0.67
2022-11-04T09:50:31.358Z,0.73
2022-11-04T09:53:01.301Z,1.03
2022-11-04T09:55:31.533Z,1.10
2022-11-04T09:57:59.894Z,0.73
2022-11-04T10:00:29.523Z,0.80
2022-11-04T10:03:00.235Z,0.67
2022-11-04T10:05:36.146Z,0.53
2022-11-04T10:08:10.186Z,0.70
2022-11-04T10:10:39.796Z,1.00
2022-11-04T10:13:12.754Z,0.80
2022-11-04T10:15:44.472Z,1.13
2022-11-04T10:18:16.589Z,0.70
2022-11-04T10:20:50.065Z,0.90
2022-11-04T10:23:21.866Z,0.70
2022-11-04T10:25:50.545Z,0.60
2022-11-04T10:28:19.682Z,1.27
2022-11-04T10:30:49.121Z,0.50
2022-11-04T10:33:19.133Z,0.80
2022-11-04T10:35:49.297Z,0.90
2022-11-04T10:38:18.727Z,0.53
2022-11-04T10:40:47.886Z,0.90
2022-11-04T10:43:17.780Z,1.07
2022-11-04T10:45:48.106Z,0.80
2022-11-04T10:48:18.015Z,0.70
2022-11-04T10:50:47.843Z,0.60
2022-11-04T10:53:17.955Z,0.53
2022-11-04T10:55:51.219Z,0.40
2022-11-04T10:58:20.575Z,0.70
2022-11-04T11:00:48.936Z,0.50
2022-11-04T11:03:27.580Z,0.50
2022-11-04T11:05:55.843Z,0.60
2022-11-04T11:08:32.332Z,0.50
2022-11-04T11:11:00.561Z,0.70
2022-11-04T11:13:29.191Z,0.90
2022-11-04T11:16:07.649Z,0.50
2022-11-04T11:18:37.234Z,0.77
2022-11-04T11:21:07.707Z,0.53
2022-11-04T11:23:56.151Z,0.70
2022-11-04T11:26:31.345Z,0.93
2022-11-04T11:29:02.263Z,0.80
2022-11-04T11:31:36.013Z,0.50
2022-11-04T11:34:04.616Z,0.60
2022-11-04T11:36:33.083Z,0.50
2022-11-04T11:39:03.812Z,0.50
2022-11-04T11:41:33.646Z,0.70
2022-11-04T11:44:05.879Z,0.50
2022-11-04T11:46:34.830Z,1.03
2022-11-04T11:49:03.203Z,0.90
2022-11-04T11:51:32.778Z,0.70
2022-11-04T11:54:22.703Z,0.80
2022-11-04T11:57:13.948Z,0.30
2022-11-04T12:02:34.327Z,0.80
2022-11-04T12:10:55.880Z,0.30
2022-11-04T12:13:27.054Z,0.53
2022-11-04T12:16:06.054Z,0.80
2022-11-04T12:18:38.209Z,0.67
2022-11-04T12:21:07.451Z,0.60
2022-11-04T12:23:38.745Z,0.60
2022-11-04T12:26:13.036Z,0.63
2022-11-04T12:28:45.523Z,0.60
2022-11-04T12:31:16.819Z,0.40
2022-11-04T12:33:45.818Z,0.60
2022-11-04T12:36:18.099Z,0.50
2022-11-04T12:38:51.061Z,0.60
2022-11-04T12:44:14.125Z,0.50
2022-11-04T12:46:43.796Z,0.43
2022-11-04T12:49:18.530Z,0.50
2022-11-04T12:51:48.199Z,0.60
2022-11-04T12:54:23.148Z,0.50
2022-11-04T12:56:52.821Z,0.60
2022-11-04T12:59:35.745Z,0.60
2022-11-04T13:02:04.660Z,0.60
2022-11-04T13:04:34.709Z,0.40
2022-11-04T13:07:04.098Z,0.20
2022-11-04T13:09:33.738Z,0.47
2022-11-04T13:12:03.825Z,0.60
2022-11-04T13:14:35.521Z,0.73
2022-11-04T13:17:05.497Z,0.70
2022-11-04T13:19:35.567Z,0.40
2022-11-04T13:22:04.621Z,0.50
2022-11-04T13:24:33.255Z,0.57
2022-11-04T13:27:02.817Z,0.40
2022-11-04T13:29:32.801Z,0.30
2022-11-04T13:32:03.833Z,0.40
2022-11-04T13:34:36.067Z,0.50
2022-11-04T13:37:07.931Z,0.60
2022-11-04T13:39:36.640Z,0.27
2022-11-04T13:42:17.515Z,0.30
2022-11-04T13:44:46.024Z,0.60
2022-11-04T13:47:21.753Z,0.40
2022-11-04T13:49:51.137Z,0.60
2022-11-04T13:52:19.464Z,0.37
2022-11-04T13:54:48.130Z,0.50
2022-11-04T13:57:17.184Z,0.50
2022-11-04T13:59:58.785Z,0.77
2022-11-04T14:02:34.378Z,0.53
2022-11-04T14:05:05.734Z,0.50
2022-11-04T14:07:48.867Z,0.33
2022-11-04T14:10:32.144Z,0.70
2022-11-04T14:13:17.369Z,0.53
2022-11-04T14:16:01.312Z,0.37
2022-11-04T14:18:31.168Z,0.70
2022-11-04T14:21:07.146Z,0.30
2022-11-04T14:23:35.389Z,0.50
2022-11-04T14:26:04.174Z,0.30
2022-11-04T14:28:32.595Z,0.40
2022-11-04T14:31:00.897Z,0.30
2022-11-04T14:33:40.712Z,0.40
2022-11-04T14:36:16.285Z,0.40
2022-11-04T14:38:44.772Z,0.53
2022-11-04T14:41:13.990Z,0.43
2022-11-04T14:43:42.584Z,0.30
2022-11-04T14:46:10.896Z,0.60
2022-11-04T14:48:42.239Z,0.43
2022-11-04T14:51:19.228Z,0.40
2022-11-04T14:53:47.488Z,0.70
2022-11-04T14:56:22.122Z,0.30
2022-11-04T14:58:58.721Z,0.23
2022-11-04T15:01:32.934Z,0.30
2022-11-04T15:04:13.161Z,0.50
2022-11-04T15:06:54.911Z,0.33
2022-11-04T15:09:24.286Z,0.60
2022-11-04T15:12:10.239Z,0.50
2022-11-04T15:14:38.694Z,0.80
2022-11-04T15:17:06.946Z,0.53
2022-11-04T15:19:37.281Z,0.50
2022-11-04T15:22:06.469Z,0.43
2022-11-04T15:24:34.777Z,0.40
2022-11-04T15:27:03.654Z,0.40
2022-11-04T15:29:32.073Z,0.57
2022-11-04T15:32:00.603Z,0.50
2022-11-04T15:34:29.124Z,0.50
2022-11-04T15:37:00.302Z,0.57
2022-11-04T15:39:29.591Z,0.87
2022-11-04T15:42:16.884Z,0.50
2022-11-04T15:44:46.700Z,0.70
2022-11-04T15:47:23.079Z,0.50
2022-11-04T15:49:51.614Z,0.37
2022-11-04T15:52:21.629Z,0.73
2022-11-04T15:54:50.259Z,0.50
2022-11-04T15:57:18.868Z,0.53
2022-11-04T15:59:47.571Z,0.93
2022-11-04T16:02:20.209Z,1.00
2022-11-04T16:04:49.372Z,0.80
2022-11-04T16:07:25.399Z,0.97
2022-11-04T16:09:53.994Z,2.17
2022-11-04T16:12:29.111Z,2.43
2022-11-04T16:14:57.488Z,3.13
2022-11-04T16:17:25.927Z,2.90
2022-11-04T16:19:54.700Z,2.17
2022-11-04T16:22:25.717Z,1.90
2022-11-04T16:24:54.092Z,2.63
2022-11-04T16:27:22.840Z,1.83
2022-11-04T16:29:54.919Z,1.47
2022-11-04T16:32:26.729Z,1.90
2022-11-04T16:34:55.617Z,1.77
2022-11-04T16:37:26.535Z,1.50
2022-11-04T16:39:54.811Z,1.37
2022-11-04T16:42:23.097Z,1.30
2022-11-04T16:44:51.835Z,2.03
2022-11-04T16:47:20.330Z,1.40
2022-11-04T16:49:48.605Z,1.37
2022-11-04T16:52:18.326Z,1.50
2022-11-04T16:54:49.570Z,1.10
2022-11-04T16:57:17.840Z,1.57
2022-11-04T16:59:46.213Z,1.30
2022-11-04T17:02:25.458Z,1.30
2022-11-04T17:04:53.986Z,1.33
2022-11-04T17:07:35.204Z,0.97
2022-11-04T17:10:14.789Z,1.40
2022-11-04T17:12:43.123Z,1.27
2022-11-04T17:15:11.935Z,1.23
2022-11-04T17:17:40.304Z,1.10
2022-11-04T17:20:09.210Z,1.20
2022-11-04T17:22:37.790Z,1.63
2022-11-04T17:25:06.405Z,1.60
2022-11-04T17:27:35.981Z,1.50
2022-11-04T17:30:04.242Z,1.17
2022-11-04T17:32:32.726Z,1.10
2022-11-04T17:35:01.011Z,1.30
2022-11-04T17:37:29.318Z,1.67
2022-11-04T17:39:57.620Z,1.50
2022-11-04T17:42:48.956Z,2.07
2022-11-04T17:45:18.914Z,1.93
2022-11-04T17:47:47.212Z,1.53
2022-11-04T17:50:15.725Z,1.50
2022-11-04T17:52:44.838Z,1.73
2022-11-04T17:55:16.925Z,1.97
2022-11-04T17:57:46.538Z,1.30
2022-11-04T18:00:15.523Z,1.60
2022-11-04T18:02:45.404Z,1.20
2022-11-04T18:05:13.809Z,1.50
2022-11-04T18:07:42.190Z,1.83
2022-11-04T18:10:11.399Z,1.23
2022-11-04T18:12:38.892Z,1.43
2022-11-04T18:15:08.021Z,1.30
2022-11-04T18:17:38.079Z,1.43
2022-11-04T18:20:13.675Z,1.83
2022-11-04T18:22:42.908Z,1.33
2022-11-04T18:25:11.763Z,1.67
2022-11-04T18:27:40.014Z,1.33
2022-11-04T18:30:08.939Z,1.60
2022-11-04T18:32:37.302Z,1.63
2022-11-04T18:35:05.835Z,1.73
2022-11-04T18:37:35.472Z,1.73
2022-11-04T18:40:04.104Z,1.40
2022-11-04T18:42:32.370Z,1.10
2022-11-04T18:45:00.653Z,1.00
2022-11-04T18:47:28.959Z,1.20
2022-11-04T18:49:57.214Z,1.37
2022-11-04T18:52:25.517Z,1.87
2022-11-04T18:54:55.239Z,1.87
2022-11-04T18:57:23.513Z,1.90
2022-11-04T18:59:51.759Z,1.60
2022-11-04T19:02:21.308Z,1.60
2022-11-04T19:04:49.662Z,1.73
2022-11-04T19:07:17.937Z,1.70
2022-11-04T19:09:47.760Z,2.10
2022-11-04T19:12:35.411Z,1.60
2022-11-04T19:15:04.575Z,1.63
2022-11-04T19:17:32.922Z,1.50
2022-11-04T19:20:05.524Z,1.87
2022-11-04T19:22:36.913Z,1.83
2022-11-04T19:25:05.369Z,1.77
2022-11-04T19:27:35.009Z,1.30
2022-11-04T19:30:03.320Z,2.07
2022-11-04T19:32:31.592Z,2.27
2022-11-04T19:35:00.176Z,3.10
2022-11-04T19:37:28.934Z,2.27
2022-11-04T19:39:57.195Z,2.17
2022-11-04T19:42:43.439Z,1.83
2022-11-04T19:45:13.123Z,2.00
2022-11-04T19:47:41.496Z,2.70
2022-11-04T19:50:10.143Z,6.40
2022-11-04T19:52:38.493Z,2.77
2022-11-04T19:55:07.247Z,4.33
2022-11-04T19:57:35.880Z,5.50
2022-11-04T20:00:04.417Z,6.07
2022-11-04T20:02:34.160Z,7.27
2022-11-04T20:05:02.573Z,7.13
2022-11-04T20:07:30.843Z,7.60
2022-11-04T20:09:59.274Z,5.50
2022-11-04T20:12:45.424Z,5.30
2022-11-04T20:15:13.630Z,8.30
2022-11-04T20:17:43.272Z,6.50
2022-11-04T20:20:11.604Z,7.80
2022-11-04T20:22:39.878Z,7.90
2022-11-04T20:25:08.520Z,6.50
2022-11-04T20:27:37.497Z,6.83
2022-11-04T20:30:06.148Z,6.33
2022-11-04T20:32:34.717Z,6.30
2022-11-04T20:35:04.373Z,5.80
2022-11-04T20:37:32.685Z,6.63
2022-11-04T20:40:01.731Z,5.23
2022-11-04T20:42:30.515Z,5.70
2022-11-04T20:44:58.871Z,6.10
2022-11-04T20:47:27.277Z,6.17
2022-11-04T20:49:55.510Z,5.70
2022-11-04T20:52:25.742Z,5.93
2022-11-04T20:54:54.763Z,5.80
2022-11-04T20:57:23.034Z,6.53
2022-11-04T20:59:53.178Z,5.67
2022-11-04T21:02:22.984Z,5.53
2022-11-04T21:04:51.401Z,4.93
2022-11-04T21:07:20.026Z,5.13
2022-11-04T21:09:51.249Z,4.97
2022-11-04T21:12:20.834Z,4.77
2022-11-04T21:14:49.073Z,4.90
2022-11-04T21:17:17.455Z,5.20
2022-11-04T21:19:45.781Z,4.33
2022-11-04T21:22:14.070Z,4.77
2022-11-04T21:24:42.375Z,4.27
2022-11-04T21:27:12.114Z,4.20
2022-11-04T21:29:40.405Z,3.77
2022-11-04T21:32:08.826Z,3.77
2022-11-04T21:34:37.163Z,4.87
2022-11-04T21:37:05.451Z,3.63
2022-11-04T21:39:33.727Z,3.97
2022-11-04T21:42:02.022Z,3.77
2022-11-04T21:44:31.713Z,3.73
2022-11-04T21:47:00.010Z,3.33
2022-11-04T21:49:28.284Z,3.20
2022-11-04T21:51:56.717Z,2.70
2022-11-04T21:54:25.074Z,3.47
2022-11-04T21:56:53.332Z,5.10
2022-11-04T21:59:21.552Z,5.53
2022-11-04T22:01:51.374Z,5.03
2022-11-04T22:04:19.776Z,6.03
2022-11-04T22:06:48.107Z,4.10
2022-11-04T22:09:16.678Z,4.13
2022-11-04T22:11:44.940Z,4.90
2022-11-04T22:14:13.370Z,3.77
2022-11-04T22:16:41.645Z,4.47
2022-11-04T22:19:13.421Z,4.33
2022-11-04T22:21:42.069Z,4.47
2022-11-04T22:24:10.764Z,4.37
2022-11-04T22:26:39.400Z,4.93
2022-11-04T22:29:07.713Z,4.00
2022-11-04T22:31:36.565Z,4.07
2022-11-04T22:34:04.923Z,3.87
2022-11-04T22:36:34.687Z,4.30
2022-11-04T22:39:03.332Z,3.90
2022-11-04T22:41:32.118Z,3.53
2022-11-04T22:44:00.406Z,3.50
2022-11-04T22:46:29.009Z,3.20
2022-11-04T22:48:57.390Z,3.60
2022-11-04T22:51:25.723Z,3.47
2022-11-04T22:53:58.887Z,3.80
2022-11-04T22:56:30.264Z,3.27
2022-11-04T22:59:00.313Z,3.33
2022-11-04T23:01:28.792Z,2.63
2022-11-04T23:03:57.596Z,3.00
2022-11-04T23:06:25.980Z,2.77
2022-11-04T23:09:00.071Z,3.43
2022-11-04T23:11:46.642Z,3.27
2022-11-04T23:14:32.648Z,3.03
2022-11-04T23:17:18.420Z,3.10
2022-11-04T23:19:46.691Z,2.43
2022-11-04T23:22:32.509Z,2.90
2022-11-04T23:25:09.564Z,2.60
2022-11-04T23:27:56.551Z,2.73
2022-11-04T23:30:25.827Z,1.97
2022-11-04T23:32:54.642Z,1.87
2022-11-04T23:35:40.731Z,2.37
2022-11-04T23:38:08.984Z,2.17
2022-11-04T23:40:39.069Z,2.37
2022-11-04T23:43:06.384Z,1.80
2022-11-04T23:45:52.400Z,2.40
2022-11-04T23:48:38.364Z,2.20
2022-11-04T23:51:24.584Z,2.20
2022-11-04T23:54:10.623Z,1.70
2022-11-04T23:56:57.732Z,2.63
2022-11-04T23:59:51.699Z,2.33
